sensor_id;sensor_type;location;lat;lon;timestamp;P1;durP1;ratioP1;P2;durP2;ratioP2
3274;SDS011;1649;53.672;10.064;2023-08-07T00:01:16;8.83;;;4.23;;
3274;SDS011;1649;53.672;10.064;2023-08-07T00:03:42;7.30;;;3.90;;
3274;SDS011;1649;53.672;10.064;2023-08-07T00:06:07;10.97;;;3.83;;
3274;SDS011;1649;53.672;10.064;2023-08-07T00:08:32;10.60;;;4.17;;
3274;SDS011;1649;53.672;10.064;2023-08-07T00:11:07;7.13;;;3.43;;
3274;SDS011;1649;53.672;10.064;2023-08-07T00:13:33;7.40;;;3.40;;
3274;SDS011;1649;53.672;10.064;2023-08-07T00:15:58;10.47;;;3.20;;
3274;SDS011;1649;53.672;10.064;2023-08-07T00:18:24;6.83;;;4.00;;
3274;SDS011;1649;53.672;10.064;2023-08-07T00:20:49;7.10;;;3.57;;
3274;SDS011;1649;53.672;10.064;2023-08-07T00:23:15;6.93;;;3.40;;
3274;SDS011;1649;53.672;10.064;2023-08-07T00:25:40;8.67;;;3.50;;
3274;SDS011;1649;53.672;10.064;2023-08-07T00:28:06;8.43;;;3.07;;
3274;SDS011;1649;53.672;10.064;2023-08-07T00:30:31;6.60;;;3.00;;
3274;SDS011;1649;53.672;10.064;2023-08-07T00:32:56;7.20;;;3.60;;
3274;SDS011;1649;53.672;10.064;2023-08-07T00:35:22;7.47;;;3.40;;
3274;SDS011;1649;53.672;10.064;2023-08-07T00:37:47;7.20;;;3.57;;
3274;SDS011;1649;53.672;10.064;2023-08-07T00:40:13;5.57;;;3.27;;
3274;SDS011;1649;53.672;10.064;2023-08-07T00:42:38;6.90;;;3.20;;
3274;SDS011;1649;53.672;10.064;2023-08-07T00:45:04;6.40;;;3.00;;
3274;SDS011;1649;53.672;10.064;2023-08-07T00:47:30;5.50;;;3.00;;
3274;SDS011;1649;53.672;10.064;2023-08-07T00:49:56;6.13;;;3.37;;
3274;SDS011;1649;53.672;10.064;2023-08-07T00:52:23;8.53;;;3.10;;
3274;SDS011;1649;53.672;10.064;2023-08-07T00:54:48;6.10;;;2.80;;
3274;SDS011;1649;53.672;10.064;2023-08-07T00:57:14;5.70;;;2.90;;
3274;SDS011;1649;53.672;10.064;2023-08-07T00:59:41;6.00;;;2.90;;
3274;SDS011;1649;53.672;10.064;2023-08-07T01:02:08;8.03;;;3.33;;
3274;SDS011;1649;53.672;10.064;2023-08-07T01:04:34;6.13;;;2.80;;
3274;SDS011;1649;53.672;10.064;2023-08-07T01:07:00;7.03;;;3.30;;
3274;SDS011;1649;53.672;10.064;2023-08-07T01:09:25;8.10;;;3.47;;
3274;SDS011;1649;53.672;10.064;2023-08-07T01:12:02;8.13;;;3.40;;
3274;SDS011;1649;53.672;10.064;2023-08-07T01:15:05;6.90;;;3.50;;
3274;SDS011;1649;53.672;10.064;2023-08-07T01:17:39;5.93;;;3.00;;
3274;SDS011;1649;53.672;10.064;2023-08-07T01:20:08;5.80;;;2.97;;
3274;SDS011;1649;53.672;10.064;2023-08-07T01:22:34;6.10;;;3.00;;
3274;SDS011;1649;53.672;10.064;2023-08-07T01:25:00;8.60;;;3.43;;
3274;SDS011;1649;53.672;10.064;2023-08-07T01:27:35;7.37;;;2.80;;
3274;SDS011;1649;53.672;10.064;2023-08-07T01:30:15;6.00;;;3.20;;
3274;SDS011;1649;53.672;10.064;2023-08-07T01:35:30;5.67;;;3.10;;
3274;SDS011;1649;53.672;10.064;2023-08-07T01:38:00;6.77;;;3.10;;
3274;SDS011;1649;53.672;10.064;2023-08-07T01:40:28;9.43;;;3.33;;
3274;SDS011;1649;53.672;10.064;2023-08-07T01:42:54;5.57;;;2.83;;
3274;SDS011;1649;53.672;10.064;2023-08-07T01:45:27;8.63;;;3.30;;
3274;SDS011;1649;53.672;10.064;2023-08-07T01:47:53;7.57;;;3.90;;
3274;SDS011;1649;53.672;10.064;2023-08-07T01:50:20;5.37;;;2.70;;
3274;SDS011;1649;53.672;10.064;2023-08-07T01:52:46;7.40;;;3.07;;
3274;SDS011;1649;53.672;10.064;2023-08-07T01:55:12;8.37;;;2.70;;
3274;SDS011;1649;53.672;10.064;2023-08-07T01:57:38;5.87;;;3.20;;
3274;SDS011;1649;53.672;10.064;2023-08-07T02:00:04;7.53;;;2.80;;
3274;SDS011;1649;53.672;10.064;2023-08-07T02:02:30;6.80;;;3.07;;
3274;SDS011;1649;53.672;10.064;2023-08-07T02:04:55;5.93;;;2.77;;
3274;SDS011;1649;53.672;10.064;2023-08-07T02:07:21;9.37;;;2.87;;
3274;SDS011;1649;53.672;10.064;2023-08-07T02:09:46;8.00;;;3.30;;
3274;SDS011;1649;53.672;10.064;2023-08-07T02:12:12;6.57;;;3.30;;
3274;SDS011;1649;53.672;10.064;2023-08-07T02:14:37;10.63;;;2.87;;
3274;SDS011;1649;53.672;10.064;2023-08-07T02:17:03;5.47;;;2.90;;
3274;SDS011;1649;53.672;10.064;2023-08-07T02:19:28;5.70;;;2.70;;
3274;SDS011;1649;53.672;10.064;2023-08-07T02:21:54;6.63;;;2.87;;
3274;SDS011;1649;53.672;10.064;2023-08-07T02:24:19;7.53;;;3.03;;
3274;SDS011;1649;53.672;10.064;2023-08-07T02:26:45;8.57;;;3.00;;
3274;SDS011;1649;53.672;10.064;2023-08-07T02:29:11;8.03;;;3.20;;
3274;SDS011;1649;53.672;10.064;2023-08-07T02:31:36;5.13;;;2.80;;
3274;SDS011;1649;53.672;10.064;2023-08-07T02:34:02;5.60;;;2.80;;
3274;SDS011;1649;53.672;10.064;2023-08-07T02:36:27;6.30;;;3.23;;
3274;SDS011;1649;53.672;10.064;2023-08-07T02:38:52;6.90;;;3.30;;
3274;SDS011;1649;53.672;10.064;2023-08-07T02:41:18;8.40;;;3.03;;
3274;SDS011;1649;53.672;10.064;2023-08-07T02:43:43;7.70;;;3.13;;
3274;SDS011;1649;53.672;10.064;2023-08-07T02:46:09;8.80;;;2.50;;
3274;SDS011;1649;53.672;10.064;2023-08-07T02:48:34;5.30;;;2.80;;
3274;SDS011;1649;53.672;10.064;2023-08-07T02:51:00;6.30;;;2.90;;
3274;SDS011;1649;53.672;10.064;2023-08-07T02:53:25;5.90;;;2.83;;
3274;SDS011;1649;53.672;10.064;2023-08-07T02:55:51;6.23;;;2.73;;
3274;SDS011;1649;53.672;10.064;2023-08-07T02:58:16;5.30;;;2.60;;
3274;SDS011;1649;53.672;10.064;2023-08-07T03:00:42;6.67;;;2.97;;
3274;SDS011;1649;53.672;10.064;2023-08-07T03:03:08;5.83;;;2.80;;
3274;SDS011;1649;53.672;10.064;2023-08-07T03:05:33;5.67;;;2.87;;
3274;SDS011;1649;53.672;10.064;2023-08-07T03:07:59;8.20;;;3.00;;
3274;SDS011;1649;53.672;10.064;2023-08-07T03:10:25;6.83;;;2.90;;
3274;SDS011;1649;53.672;10.064;2023-08-07T03:12:50;5.43;;;3.00;;
3274;SDS011;1649;53.672;10.064;2023-08-07T03:15:16;7.30;;;3.07;;
3274;SDS011;1649;53.672;10.064;2023-08-07T03:17:41;5.37;;;2.70;;
3274;SDS011;1649;53.672;10.064;2023-08-07T03:20:07;5.10;;;2.70;;
3274;SDS011;1649;53.672;10.064;2023-08-07T03:22:34;5.97;;;2.70;;
3274;SDS011;1649;53.672;10.064;2023-08-07T03:25:00;7.23;;;3.00;;
3274;SDS011;1649;53.672;10.064;2023-08-07T03:27:25;5.53;;;3.00;;
3274;SDS011;1649;53.672;10.064;2023-08-07T03:29:50;5.57;;;2.80;;
3274;SDS011;1649;53.672;10.064;2023-08-07T03:32:16;6.37;;;2.93;;
3274;SDS011;1649;53.672;10.064;2023-08-07T03:34:42;5.50;;;2.80;;
3274;SDS011;1649;53.672;10.064;2023-08-07T03:37:07;6.53;;;3.00;;
3274;SDS011;1649;53.672;10.064;2023-08-07T03:39:33;6.13;;;2.90;;
3274;SDS011;1649;53.672;10.064;2023-08-07T03:41:58;5.77;;;2.83;;
3274;SDS011;1649;53.672;10.064;2023-08-07T03:44:24;5.80;;;2.90;;
3274;SDS011;1649;53.672;10.064;2023-08-07T03:46:49;6.70;;;3.00;;
3274;SDS011;1649;53.672;10.064;2023-08-07T03:49:16;8.30;;;3.00;;
3274;SDS011;1649;53.672;10.064;2023-08-07T03:51:41;5.40;;;2.60;;
3274;SDS011;1649;53.672;10.064;2023-08-07T03:54:07;7.60;;;3.07;;
3274;SDS011;1649;53.672;10.064;2023-08-07T03:56:32;8.37;;;3.33;;
3274;SDS011;1649;53.672;10.064;2023-08-07T03:59:01;8.57;;;3.67;;
3274;SDS011;1649;53.672;10.064;2023-08-07T04:01:27;7.83;;;4.33;;
3274;SDS011;1649;53.672;10.064;2023-08-07T04:03:52;7.00;;;3.30;;
3274;SDS011;1649;53.672;10.064;2023-08-07T04:06:18;7.73;;;3.63;;
3274;SDS011;1649;53.672;10.064;2023-08-07T04:08:47;6.23;;;3.20;;
3274;SDS011;1649;53.672;10.064;2023-08-07T04:11:12;7.37;;;2.70;;
3274;SDS011;1649;53.672;10.064;2023-08-07T04:13:38;7.30;;;3.00;;
3274;SDS011;1649;53.672;10.064;2023-08-07T04:16:04;7.13;;;3.50;;
3274;SDS011;1649;53.672;10.064;2023-08-07T04:18:30;9.50;;;5.60;;
3274;SDS011;1649;53.672;10.064;2023-08-07T04:20:56;9.63;;;3.77;;
3274;SDS011;1649;53.672;10.064;2023-08-07T04:23:23;5.87;;;3.10;;
3274;SDS011;1649;53.672;10.064;2023-08-07T04:25:49;7.23;;;3.50;;
3274;SDS011;1649;53.672;10.064;2023-08-07T04:28:16;5.80;;;3.13;;
3274;SDS011;1649;53.672;10.064;2023-08-07T04:30:41;8.60;;;3.03;;
3274;SDS011;1649;53.672;10.064;2023-08-07T04:33:08;11.20;;;4.10;;
3274;SDS011;1649;53.672;10.064;2023-08-07T04:35:33;6.57;;;3.20;;
3274;SDS011;1649;53.672;10.064;2023-08-07T04:37:59;10.83;;;3.77;;
3274;SDS011;1649;53.672;10.064;2023-08-07T04:40:25;7.93;;;3.80;;
3274;SDS011;1649;53.672;10.064;2023-08-07T04:42:51;8.40;;;3.83;;
3274;SDS011;1649;53.672;10.064;2023-08-07T04:45:16;7.20;;;3.63;;
3274;SDS011;1649;53.672;10.064;2023-08-07T04:47:42;10.90;;;3.57;;
3274;SDS011;1649;53.672;10.064;2023-08-07T04:50:07;6.50;;;3.27;;
3274;SDS011;1649;53.672;10.064;2023-08-07T04:52:34;11.97;;;3.30;;
3274;SDS011;1649;53.672;10.064;2023-08-07T04:54:59;9.23;;;3.70;;
3274;SDS011;1649;53.672;10.064;2023-08-07T04:57:25;9.67;;;3.30;;
3274;SDS011;1649;53.672;10.064;2023-08-07T04:59:51;8.37;;;3.00;;
3274;SDS011;1649;53.672;10.064;2023-08-07T05:02:17;16.00;;;4.23;;
3274;SDS011;1649;53.672;10.064;2023-08-07T05:04:43;10.77;;;3.97;;
3274;SDS011;1649;53.672;10.064;2023-08-07T05:07:08;10.10;;;3.50;;
3274;SDS011;1649;53.672;10.064;2023-08-07T05:09:34;10.33;;;2.70;;
3274;SDS011;1649;53.672;10.064;2023-08-07T05:12:00;13.23;;;4.03;;
3274;SDS011;1649;53.672;10.064;2023-08-07T05:14:26;7.13;;;3.03;;
3274;SDS011;1649;53.672;10.064;2023-08-07T05:16:51;7.57;;;3.63;;
3274;SDS011;1649;53.672;10.064;2023-08-07T05:19:17;8.63;;;3.30;;
3274;SDS011;1649;53.672;10.064;2023-08-07T05:21:42;10.57;;;3.53;;
3274;SDS011;1649;53.672;10.064;2023-08-07T05:24:08;7.33;;;2.77;;
3274;SDS011;1649;53.672;10.064;2023-08-07T05:26:34;6.53;;;2.70;;
3274;SDS011;1649;53.672;10.064;2023-08-07T05:28:59;10.40;;;3.10;;
3274;SDS011;1649;53.672;10.064;2023-08-07T05:31:25;10.73;;;3.17;;
3274;SDS011;1649;53.672;10.064;2023-08-07T05:33:50;6.47;;;2.47;;
3274;SDS011;1649;53.672;10.064;2023-08-07T05:36:16;8.37;;;3.07;;
3274;SDS011;1649;53.672;10.064;2023-08-07T05:38:41;9.80;;;3.33;;
3274;SDS011;1649;53.672;10.064;2023-08-07T05:41:08;9.60;;;3.00;;
3274;SDS011;1649;53.672;10.064;2023-08-07T05:43:34;9.93;;;3.47;;
3274;SDS011;1649;53.672;10.064;2023-08-07T05:45:59;7.00;;;2.97;;
3274;SDS011;1649;53.672;10.064;2023-08-07T05:48:25;8.10;;;3.00;;
3274;SDS011;1649;53.672;10.064;2023-08-07T05:50:51;8.93;;;3.03;;
3274;SDS011;1649;53.672;10.064;2023-08-07T05:53:17;8.60;;;3.00;;
3274;SDS011;1649;53.672;10.064;2023-08-07T05:55:42;7.67;;;3.30;;
3274;SDS011;1649;53.672;10.064;2023-08-07T05:58:08;8.10;;;2.70;;
3274;SDS011;1649;53.672;10.064;2023-08-07T06:00:33;8.77;;;3.07;;
3274;SDS011;1649;53.672;10.064;2023-08-07T06:02:59;8.80;;;2.93;;
3274;SDS011;1649;53.672;10.064;2023-08-07T06:05:25;7.20;;;2.87;;
3274;SDS011;1649;53.672;10.064;2023-08-07T06:07:50;11.67;;;3.07;;
3274;SDS011;1649;53.672;10.064;2023-08-07T06:10:16;8.93;;;3.00;;
3274;SDS011;1649;53.672;10.064;2023-08-07T06:12:41;8.00;;;4.00;;
3274;SDS011;1649;53.672;10.064;2023-08-07T06:15:07;8.23;;;3.23;;
3274;SDS011;1649;53.672;10.064;2023-08-07T06:17:33;7.73;;;3.10;;
3274;SDS011;1649;53.672;10.064;2023-08-07T06:19:59;10.70;;;3.30;;
3274;SDS011;1649;53.672;10.064;2023-08-07T06:22:24;13.70;;;3.30;;
3274;SDS011;1649;53.672;10.064;2023-08-07T06:24:50;12.57;;;3.43;;
3274;SDS011;1649;53.672;10.064;2023-08-07T06:27:15;9.43;;;3.20;;
3274;SDS011;1649;53.672;10.064;2023-08-07T06:29:41;8.77;;;2.67;;
3274;SDS011;1649;53.672;10.064;2023-08-07T06:32:07;9.30;;;2.80;;
3274;SDS011;1649;53.672;10.064;2023-08-07T06:34:32;9.80;;;3.60;;
3274;SDS011;1649;53.672;10.064;2023-08-07T06:36:59;11.67;;;3.50;;
3274;SDS011;1649;53.672;10.064;2023-08-07T06:39:25;8.17;;;2.87;;
3274;SDS011;1649;53.672;10.064;2023-08-07T06:41:50;14.13;;;3.10;;
3274;SDS011;1649;53.672;10.064;2023-08-07T06:44:16;10.90;;;2.97;;
3274;SDS011;1649;53.672;10.064;2023-08-07T06:46:41;10.77;;;3.23;;
3274;SDS011;1649;53.672;10.064;2023-08-07T06:49:07;10.53;;;3.00;;
3274;SDS011;1649;53.672;10.064;2023-08-07T06:51:32;9.67;;;4.07;;
3274;SDS011;1649;53.672;10.064;2023-08-07T06:53:58;13.10;;;3.63;;
3274;SDS011;1649;53.672;10.064;2023-08-07T06:56:23;8.27;;;3.07;;
3274;SDS011;1649;53.672;10.064;2023-08-07T06:58:49;9.37;;;2.97;;
3274;SDS011;1649;53.672;10.064;2023-08-07T07:01:14;11.03;;;3.60;;
3274;SDS011;1649;53.672;10.064;2023-08-07T07:03:40;9.80;;;3.33;;
3274;SDS011;1649;53.672;10.064;2023-08-07T07:06:05;9.53;;;3.20;;
3274;SDS011;1649;53.672;10.064;2023-08-07T07:08:31;19.00;;;4.13;;
3274;SDS011;1649;53.672;10.064;2023-08-07T07:10:56;13.80;;;3.63;;
3274;SDS011;1649;53.672;10.064;2023-08-07T07:13:23;10.83;;;3.50;;
3274;SDS011;1649;53.672;10.064;2023-08-07T07:15:52;11.80;;;3.50;;
3274;SDS011;1649;53.672;10.064;2023-08-07T07:18:21;12.70;;;4.70;;
3274;SDS011;1649;53.672;10.064;2023-08-07T07:20:46;12.43;;;3.87;;
3274;SDS011;1649;53.672;10.064;2023-08-07T07:23:12;7.60;;;3.10;;
3274;SDS011;1649;53.672;10.064;2023-08-07T07:25:37;8.40;;;3.10;;
3274;SDS011;1649;53.672;10.064;2023-08-07T07:28:03;12.90;;;3.40;;
3274;SDS011;1649;53.672;10.064;2023-08-07T07:30:28;9.40;;;3.30;;
3274;SDS011;1649;53.672;10.064;2023-08-07T07:32:54;11.87;;;3.60;;
3274;SDS011;1649;53.672;10.064;2023-08-07T07:35:19;10.43;;;3.40;;
3274;SDS011;1649;53.672;10.064;2023-08-07T07:37:45;11.73;;;3.40;;
3274;SDS011;1649;53.672;10.064;2023-08-07T07:40:10;13.60;;;3.60;;
3274;SDS011;1649;53.672;10.064;2023-08-07T07:42:36;11.37;;;4.17;;
3274;SDS011;1649;53.672;10.064;2023-08-07T07:45:02;8.73;;;3.10;;
3274;SDS011;1649;53.672;10.064;2023-08-07T07:47:28;9.73;;;3.00;;
3274;SDS011;1649;53.672;10.064;2023-08-07T07:50:04;9.07;;;3.30;;
3274;SDS011;1649;53.672;10.064;2023-08-07T07:52:33;9.77;;;3.13;;
3274;SDS011;1649;53.672;10.064;2023-08-07T07:54:59;12.70;;;3.97;;
3274;SDS011;1649;53.672;10.064;2023-08-07T07:57:25;12.97;;;3.83;;
3274;SDS011;1649;53.672;10.064;2023-08-07T07:59:51;11.77;;;3.00;;
3274;SDS011;1649;53.672;10.064;2023-08-07T08:02:16;8.17;;;3.60;;
3274;SDS011;1649;53.672;10.064;2023-08-07T08:04:42;11.03;;;3.40;;
3274;SDS011;1649;53.672;10.064;2023-08-07T08:07:07;9.27;;;3.00;;
3274;SDS011;1649;53.672;10.064;2023-08-07T08:09:33;13.63;;;3.30;;
3274;SDS011;1649;53.672;10.064;2023-08-07T08:11:59;10.53;;;3.67;;
3274;SDS011;1649;53.672;10.064;2023-08-07T08:14:24;9.90;;;3.63;;
3274;SDS011;1649;53.672;10.064;2023-08-07T08:16:50;11.50;;;4.30;;
3274;SDS011;1649;53.672;10.064;2023-08-07T08:19:15;14.60;;;5.10;;
3274;SDS011;1649;53.672;10.064;2023-08-07T08:21:41;14.80;;;3.37;;
3274;SDS011;1649;53.672;10.064;2023-08-07T08:24:07;12.87;;;4.40;;
3274;SDS011;1649;53.672;10.064;2023-08-07T08:26:32;13.67;;;3.70;;
3274;SDS011;1649;53.672;10.064;2023-08-07T08:28:58;14.27;;;3.70;;
3274;SDS011;1649;53.672;10.064;2023-08-07T08:31:23;16.00;;;3.50;;
3274;SDS011;1649;53.672;10.064;2023-08-07T08:33:49;13.67;;;3.23;;
3274;SDS011;1649;53.672;10.064;2023-08-07T08:36:15;13.43;;;3.50;;
3274;SDS011;1649;53.672;10.064;2023-08-07T08:38:40;11.53;;;3.63;;
3274;SDS011;1649;53.672;10.064;2023-08-07T08:41:06;14.73;;;2.70;;
3274;SDS011;1649;53.672;10.064;2023-08-07T08:43:34;11.40;;;3.20;;
3274;SDS011;1649;53.672;10.064;2023-08-07T08:46:04;13.70;;;3.50;;
3274;SDS011;1649;53.672;10.064;2023-08-07T08:48:34;15.47;;;3.40;;
3274;SDS011;1649;53.672;10.064;2023-08-07T08:51:02;13.70;;;4.23;;
3274;SDS011;1649;53.672;10.064;2023-08-07T08:53:30;10.90;;;3.73;;
3274;SDS011;1649;53.672;10.064;2023-08-07T08:55:57;14.13;;;3.43;;
3274;SDS011;1649;53.672;10.064;2023-08-07T08:58:22;11.57;;;3.80;;
3274;SDS011;1649;53.672;10.064;2023-08-07T09:00:48;10.40;;;3.60;;
3274;SDS011;1649;53.672;10.064;2023-08-07T09:03:14;10.40;;;3.57;;
3274;SDS011;1649;53.672;10.064;2023-08-07T09:05:40;16.67;;;4.97;;
3274;SDS011;1649;53.672;10.064;2023-08-07T09:08:06;10.60;;;3.53;;
3274;SDS011;1649;53.672;10.064;2023-08-07T09:10:33;13.67;;;3.60;;
3274;SDS011;1649;53.672;10.064;2023-08-07T09:13:00;12.90;;;3.93;;
3274;SDS011;1649;53.672;10.064;2023-08-07T09:15:31;18.90;;;3.70;;
3274;SDS011;1649;53.672;10.064;2023-08-07T09:17:57;9.83;;;3.43;;
3274;SDS011;1649;53.672;10.064;2023-08-07T09:20:27;12.13;;;4.30;;
3274;SDS011;1649;53.672;10.064;2023-08-07T09:22:53;11.63;;;4.03;;
3274;SDS011;1649;53.672;10.064;2023-08-07T09:25:26;11.10;;;3.47;;
3274;SDS011;1649;53.672;10.064;2023-08-07T09:27:54;10.83;;;3.20;;
3274;SDS011;1649;53.672;10.064;2023-08-07T09:30:26;14.90;;;3.23;;
3274;SDS011;1649;53.672;10.064;2023-08-07T09:32:53;9.47;;;3.40;;
3274;SDS011;1649;53.672;10.064;2023-08-07T09:35:20;9.53;;;4.00;;
3274;SDS011;1649;53.672;10.064;2023-08-07T09:37:46;13.83;;;3.50;;
3274;SDS011;1649;53.672;10.064;2023-08-07T09:40:11;17.10;;;3.93;;
3274;SDS011;1649;53.672;10.064;2023-08-07T09:42:40;13.67;;;3.93;;
3274;SDS011;1649;53.672;10.064;2023-08-07T09:45:18;12.90;;;3.43;;
3274;SDS011;1649;53.672;10.064;2023-08-07T09:47:56;13.83;;;3.70;;
3274;SDS011;1649;53.672;10.064;2023-08-07T09:50:26;11.33;;;3.60;;
3274;SDS011;1649;53.672;10.064;2023-08-07T09:52:52;10.90;;;3.03;;
3274;SDS011;1649;53.672;10.064;2023-08-07T09:55:18;9.37;;;3.10;;
3274;SDS011;1649;53.672;10.064;2023-08-07T09:57:43;9.10;;;3.10;;
3274;SDS011;1649;53.672;10.064;2023-08-07T10:00:13;12.00;;;3.60;;
3274;SDS011;1649;53.672;10.064;2023-08-07T10:02:40;7.53;;;2.87;;
3274;SDS011;1649;53.672;10.064;2023-08-07T10:05:07;8.60;;;2.97;;
3274;SDS011;1649;53.672;10.064;2023-08-07T10:07:38;9.53;;;3.20;;
3274;SDS011;1649;53.672;10.064;2023-08-07T10:10:04;10.90;;;3.40;;
3274;SDS011;1649;53.672;10.064;2023-08-07T10:12:34;10.00;;;2.87;;
3274;SDS011;1649;53.672;10.064;2023-08-07T10:15:01;13.70;;;3.07;;
3274;SDS011;1649;53.672;10.064;2023-08-07T10:17:28;11.00;;;2.40;;
3274;SDS011;1649;53.672;10.064;2023-08-07T10:19:54;9.20;;;2.70;;
3274;SDS011;1649;53.672;10.064;2023-08-07T10:22:20;9.43;;;2.60;;
3274;SDS011;1649;53.672;10.064;2023-08-07T10:24:50;7.93;;;2.90;;
3274;SDS011;1649;53.672;10.064;2023-08-07T10:27:18;11.60;;;3.50;;
3274;SDS011;1649;53.672;10.064;2023-08-07T10:29:47;10.77;;;2.90;;
3274;SDS011;1649;53.672;10.064;2023-08-07T10:32:15;9.13;;;2.60;;
3274;SDS011;1649;53.672;10.064;2023-08-07T10:34:47;10.13;;;3.30;;
3274;SDS011;1649;53.672;10.064;2023-08-07T10:37:38;11.00;;;3.20;;
3274;SDS011;1649;53.672;10.064;2023-08-07T10:40:08;9.50;;;2.87;;
3274;SDS011;1649;53.672;10.064;2023-08-07T10:45:19;9.13;;;2.60;;
3274;SDS011;1649;53.672;10.064;2023-08-07T10:50:32;10.00;;;3.10;;
3274;SDS011;1649;53.672;10.064;2023-08-07T10:53:00;13.50;;;3.20;;
3274;SDS011;1649;53.672;10.064;2023-08-07T10:55:47;8.20;;;3.23;;
3274;SDS011;1649;53.672;10.064;2023-08-07T10:58:25;16.17;;;3.60;;
3274;SDS011;1649;53.672;10.064;2023-08-07T11:01:15;10.37;;;3.40;;
3274;SDS011;1649;53.672;10.064;2023-08-07T11:03:56;9.93;;;2.60;;
3274;SDS011;1649;53.672;10.064;2023-08-07T11:06:29;7.23;;;2.73;;
3274;SDS011;1649;53.672;10.064;2023-08-07T11:08:56;10.33;;;2.40;;
3274;SDS011;1649;53.672;10.064;2023-08-07T11:11:22;8.20;;;2.53;;
3274;SDS011;1649;53.672;10.064;2023-08-07T11:13:48;11.70;;;3.23;;
3274;SDS011;1649;53.672;10.064;2023-08-07T11:16:14;8.60;;;2.50;;
3274;SDS011;1649;53.672;10.064;2023-08-07T11:18:40;11.43;;;2.97;;
3274;SDS011;1649;53.672;10.064;2023-08-07T11:21:08;5.17;;;2.10;;
3274;SDS011;1649;53.672;10.064;2023-08-07T11:23:35;9.30;;;2.57;;
3274;SDS011;1649;53.672;10.064;2023-08-07T11:26:01;10.00;;;2.53;;
3274;SDS011;1649;53.672;10.064;2023-08-07T11:28:28;13.47;;;3.03;;
3274;SDS011;1649;53.672;10.064;2023-08-07T11:30:53;5.47;;;1.70;;
3274;SDS011;1649;53.672;10.064;2023-08-07T11:33:21;6.73;;;2.10;;
3274;SDS011;1649;53.672;10.064;2023-08-07T11:35:48;6.80;;;2.20;;
3274;SDS011;1649;53.672;10.064;2023-08-07T11:38:28;7.80;;;1.80;;
3274;SDS011;1649;53.672;10.064;2023-08-07T11:41:04;10.07;;;2.50;;
3274;SDS011;1649;53.672;10.064;2023-08-07T11:43:32;7.63;;;2.63;;
3274;SDS011;1649;53.672;10.064;2023-08-07T11:45:59;9.40;;;2.73;;
3274;SDS011;1649;53.672;10.064;2023-08-07T11:48:28;8.93;;;3.07;;
3274;SDS011;1649;53.672;10.064;2023-08-07T11:50:54;9.60;;;2.10;;
3274;SDS011;1649;53.672;10.064;2023-08-07T11:53:21;5.47;;;2.00;;
3274;SDS011;1649;53.672;10.064;2023-08-07T11:55:51;9.57;;;2.03;;
3274;SDS011;1649;53.672;10.064;2023-08-07T11:58:19;7.20;;;2.10;;
3274;SDS011;1649;53.672;10.064;2023-08-07T12:00:45;10.17;;;2.60;;
3274;SDS011;1649;53.672;10.064;2023-08-07T12:03:27;6.50;;;1.73;;
3274;SDS011;1649;53.672;10.064;2023-08-07T12:05:55;10.47;;;2.60;;
3274;SDS011;1649;53.672;10.064;2023-08-07T12:08:21;12.93;;;2.57;;
3274;SDS011;1649;53.672;10.064;2023-08-07T12:10:53;10.43;;;2.60;;
3274;SDS011;1649;53.672;10.064;2023-08-07T12:13:25;7.70;;;2.33;;
3274;SDS011;1649;53.672;10.064;2023-08-07T12:15:53;6.53;;;2.10;;
3274;SDS011;1649;53.672;10.064;2023-08-07T12:18:20;9.83;;;2.37;;
3274;SDS011;1649;53.672;10.064;2023-08-07T12:20:46;9.40;;;2.20;;
3274;SDS011;1649;53.672;10.064;2023-08-07T12:23:15;5.17;;;1.83;;
3274;SDS011;1649;53.672;10.064;2023-08-07T12:25:44;7.37;;;2.40;;
3274;SDS011;1649;53.672;10.064;2023-08-07T12:28:10;12.97;;;2.17;;
3274;SDS011;1649;53.672;10.064;2023-08-07T12:30:36;7.90;;;2.30;;
3274;SDS011;1649;53.672;10.064;2023-08-07T12:33:02;10.43;;;2.50;;
3274;SDS011;1649;53.672;10.064;2023-08-07T12:35:32;6.90;;;2.50;;
3274;SDS011;1649;53.672;10.064;2023-08-07T12:37:59;10.50;;;2.80;;
3274;SDS011;1649;53.672;10.064;2023-08-07T12:40:26;6.87;;;2.13;;
3274;SDS011;1649;53.672;10.064;2023-08-07T12:42:52;9.90;;;2.30;;
3274;SDS011;1649;53.672;10.064;2023-08-07T12:45:17;6.83;;;2.00;;
3274;SDS011;1649;53.672;10.064;2023-08-07T12:47:44;10.13;;;2.07;;
3274;SDS011;1649;53.672;10.064;2023-08-07T12:50:10;9.10;;;2.43;;
3274;SDS011;1649;53.672;10.064;2023-08-07T12:52:35;7.10;;;2.20;;
3274;SDS011;1649;53.672;10.064;2023-08-07T12:55:01;7.20;;;1.87;;
3274;SDS011;1649;53.672;10.064;2023-08-07T12:57:26;4.97;;;1.90;;
3274;SDS011;1649;53.672;10.064;2023-08-07T12:59:52;11.40;;;2.43;;
3274;SDS011;1649;53.672;10.064;2023-08-07T13:02:17;8.17;;;2.43;;
3274;SDS011;1649;53.672;10.064;2023-08-07T13:04:43;11.30;;;2.67;;
3274;SDS011;1649;53.672;10.064;2023-08-07T13:07:08;8.00;;;2.40;;
3274;SDS011;1649;53.672;10.064;2023-08-07T13:09:34;9.63;;;2.10;;
3274;SDS011;1649;53.672;10.064;2023-08-07T13:11:59;11.23;;;2.50;;
3274;SDS011;1649;53.672;10.064;2023-08-07T13:14:25;9.23;;;2.50;;
3274;SDS011;1649;53.672;10.064;2023-08-07T13:16:51;10.70;;;2.00;;
3274;SDS011;1649;53.672;10.064;2023-08-07T13:19:16;11.87;;;2.17;;
3274;SDS011;1649;53.672;10.064;2023-08-07T13:21:42;12.87;;;2.53;;
3274;SDS011;1649;53.672;10.064;2023-08-07T13:24:08;12.03;;;2.77;;
3274;SDS011;1649;53.672;10.064;2023-08-07T13:26:34;10.23;;;2.70;;
3274;SDS011;1649;53.672;10.064;2023-08-07T13:28:59;9.80;;;2.67;;
3274;SDS011;1649;53.672;10.064;2023-08-07T13:31:25;12.43;;;2.77;;
3274;SDS011;1649;53.672;10.064;2023-08-07T13:33:50;8.67;;;2.70;;
3274;SDS011;1649;53.672;10.064;2023-08-07T13:36:16;9.07;;;3.47;;
3274;SDS011;1649;53.672;10.064;2023-08-07T13:38:41;10.87;;;3.00;;
3274;SDS011;1649;53.672;10.064;2023-08-07T13:41:07;9.47;;;2.90;;
3274;SDS011;1649;53.672;10.064;2023-08-07T13:43:33;9.10;;;3.07;;
3274;SDS011;1649;53.672;10.064;2023-08-07T13:45:58;9.27;;;3.10;;
3274;SDS011;1649;53.672;10.064;2023-08-07T13:48:23;12.93;;;3.47;;
3274;SDS011;1649;53.672;10.064;2023-08-07T13:50:53;12.70;;;3.47;;
3274;SDS011;1649;53.672;10.064;2023-08-07T13:53:18;11.37;;;3.33;;
3274;SDS011;1649;53.672;10.064;2023-08-07T13:55:45;21.33;;;4.20;;
3274;SDS011;1649;53.672;10.064;2023-08-07T13:58:11;12.87;;;4.20;;
3274;SDS011;1649;53.672;10.064;2023-08-07T14:00:40;12.40;;;3.87;;
3274;SDS011;1649;53.672;10.064;2023-08-07T14:03:06;13.63;;;5.03;;
3274;SDS011;1649;53.672;10.064;2023-08-07T14:05:31;16.03;;;3.70;;
3274;SDS011;1649;53.672;10.064;2023-08-07T14:07:57;12.53;;;3.40;;
3274;SDS011;1649;53.672;10.064;2023-08-07T14:10:22;12.10;;;4.27;;
3274;SDS011;1649;53.672;10.064;2023-08-07T14:12:48;18.27;;;3.83;;
3274;SDS011;1649;53.672;10.064;2023-08-07T14:15:13;11.87;;;3.80;;
3274;SDS011;1649;53.672;10.064;2023-08-07T14:17:39;11.87;;;3.50;;
3274;SDS011;1649;53.672;10.064;2023-08-07T14:20:05;9.80;;;3.33;;
3274;SDS011;1649;53.672;10.064;2023-08-07T14:22:31;12.03;;;2.90;;
3274;SDS011;1649;53.672;10.064;2023-08-07T14:24:57;12.20;;;3.03;;
3274;SDS011;1649;53.672;10.064;2023-08-07T14:27:22;9.40;;;2.60;;
3274;SDS011;1649;53.672;10.064;2023-08-07T14:29:48;13.10;;;2.87;;
3274;SDS011;1649;53.672;10.064;2023-08-07T14:32:13;8.10;;;2.60;;
3274;SDS011;1649;53.672;10.064;2023-08-07T14:34:39;8.60;;;2.67;;
3274;SDS011;1649;53.672;10.064;2023-08-07T14:37:04;9.93;;;3.07;;
3274;SDS011;1649;53.672;10.064;2023-08-07T14:39:30;10.63;;;3.23;;
3274;SDS011;1649;53.672;10.064;2023-08-07T14:41:55;11.23;;;3.40;;
3274;SDS011;1649;53.672;10.064;2023-08-07T14:44:21;16.27;;;3.30;;
3274;SDS011;1649;53.672;10.064;2023-08-07T14:46:47;8.17;;;2.43;;
3274;SDS011;1649;53.672;10.064;2023-08-07T14:49:12;10.00;;;3.13;;
3274;SDS011;1649;53.672;10.064;2023-08-07T14:51:38;13.37;;;3.43;;
3274;SDS011;1649;53.672;10.064;2023-08-07T14:54:03;14.77;;;3.33;;
3274;SDS011;1649;53.672;10.064;2023-08-07T14:56:28;10.43;;;3.67;;
3274;SDS011;1649;53.672;10.064;2023-08-07T14:58:54;12.53;;;3.40;;
3274;SDS011;1649;53.672;10.064;2023-08-07T15:01:19;13.90;;;3.10;;